Archival Weather

NSFA McMurdo Sound

NSFA McMurdo Sound, Antarctica (NZCM)

Report from: Friday, September 23, 2022 9:07 AM UTC
Current time: Sunday, December 4, 2022 11:19 AM UTC

Current weather
Weather history
Weather forecast

Present weatherLight snow, mist
Temperature-21.0°C (-5.8°F)
Wind chill-33.4°C (-28.2°F)
Dew point-25.0°C (-13.0°F)
Winds 15 kts (7.7 m/s, 17.3 mph) Vrb
Wind gusts 26 kts (13.4 m/s, 29.9 mph)
Winds variableWinds variable from East-Northeast (60°) to East-Southeast (120°)
Peak wind 26 kts (13.4 m/s, 29.9 mph) East (90°) at 04:00
Visibility0.6 mi. (1 km)
Clouds Ceiling: Vertical visibility 1,000 ft. (305 m)
Altimeter28.66 in.Hg (971 mB)
Precip. events Snow began 8:57 AM
Relative humidity70 %
Density altitude-3,092 ft. (-943 m)
Sea-level pressure107.1 kPa (1071 mB, 31.63 in.Hg)
Remarks Fully automated report
System requires maintenance
Special weather observation
Automated weather observing station with precipitation discriminator
Flight conditions Low Instrument Meteorological Conditions
Raw dataSPECI NZCM 230907Z AUTO 08015G26KT 060V120 1000 -SN BR VV010 M21/M25 A2866 RMK AO2 PK WND 09026/0900 WSHFT 0903 SNB0857 SLP712 T12101250 $
An error has occurred. This application may no longer respond until reloaded. Reload 🗙